createdAt,value
2022-08-25T00:01:16.785Z,15.91
2022-08-25T00:03:44.842Z,16.14
2022-08-25T00:06:12.050Z,15.94
2022-08-25T00:08:39.260Z,15.37
2022-08-25T00:11:08.038Z,15.60
2022-08-25T00:13:34.901Z,15.52
2022-08-25T00:16:01.615Z,15.61
2022-08-25T00:18:28.575Z,15.72
2022-08-25T00:20:55.213Z,15.61
2022-08-25T00:23:21.897Z,15.61
2022-08-25T00:25:48.978Z,15.83
2022-08-25T00:28:15.658Z,15.34
2022-08-25T00:30:43.470Z,15.46
2022-08-25T00:33:10.518Z,15.45
2022-08-25T00:35:37.222Z,15.21
2022-08-25T00:38:04.160Z,15.29
2022-08-25T00:40:31.351Z,15.01
2022-08-25T00:42:58.072Z,15.16
2022-08-25T00:45:25.019Z,15.33
2022-08-25T00:47:51.841Z,15.40
2022-08-25T00:50:19.421Z,15.23
2022-08-25T00:52:53.672Z,15.34
2022-08-25T00:55:35.805Z,15.52
2022-08-25T00:58:14.218Z,15.06
2022-08-25T01:00:45.072Z,15.46
2022-08-25T01:03:12.580Z,15.34
2022-08-25T01:05:42.975Z,14.93
2022-08-25T01:08:10.711Z,15.05
2022-08-25T01:10:40.600Z,15.11
2022-08-25T01:13:18.900Z,15.31
2022-08-25T01:15:47.666Z,15.15
2022-08-25T01:18:15.247Z,14.84
2022-08-25T01:20:42.866Z,14.78
2022-08-25T01:23:09.423Z,14.60
2022-08-25T01:25:42.238Z,14.98
2022-08-25T01:28:09.791Z,14.86
2022-08-25T01:30:36.727Z,15.12
2022-08-25T01:33:09.092Z,15.13
2022-08-25T01:35:36.790Z,14.55
2022-08-25T01:38:05.454Z,14.93
2022-08-25T01:40:33.178Z,14.98
2022-08-25T01:43:15.027Z,15.21
2022-08-25T01:45:45.803Z,14.64
2022-08-25T01:48:13.519Z,14.80
2022-08-25T01:50:41.486Z,15.13
2022-08-25T01:53:13.561Z,14.64
2022-08-25T01:55:40.431Z,14.90
2022-08-25T01:58:07.030Z,14.65
2022-08-25T02:00:33.810Z,14.61
2022-08-25T02:03:00.587Z,14.46
2022-08-25T02:05:27.641Z,14.75
2022-08-25T02:07:54.737Z,15.04
2022-08-25T02:10:21.390Z,14.42
2022-08-25T02:12:49.941Z,14.68
2022-08-25T02:15:16.965Z,14.77
2022-08-25T02:17:43.530Z,14.62
2022-08-25T02:20:10.864Z,14.56
2022-08-25T02:22:37.451Z,14.67
2022-08-25T02:25:04.704Z,14.49
2022-08-25T02:27:31.452Z,14.46
2022-08-25T02:29:58.128Z,14.34
2022-08-25T02:32:24.707Z,14.18
2022-08-25T02:34:51.463Z,14.50
2022-08-25T02:37:18.012Z,13.94
2022-08-25T02:39:44.671Z,14.28
2022-08-25T02:42:11.546Z,14.01
2022-08-25T02:44:38.312Z,14.46
2022-08-25T02:47:04.935Z,14.39
2022-08-25T02:49:31.661Z,14.29
2022-08-25T02:51:58.387Z,14.13
2022-08-25T02:54:25.068Z,14.43
2022-08-25T02:56:51.692Z,13.27
2022-08-25T02:59:18.444Z,14.00
2022-08-25T03:01:45.697Z,14.26
2022-08-25T03:04:13.036Z,14.25
2022-08-25T03:06:39.634Z,14.01
2022-08-25T03:09:06.740Z,13.65
2022-08-25T03:11:33.597Z,14.02
2022-08-25T03:14:00.279Z,13.77
2022-08-25T03:16:28.064Z,13.45
2022-08-25T03:18:55.562Z,13.67
2022-08-25T03:21:22.625Z,13.46
2022-08-25T03:23:49.269Z,13.41
2022-08-25T03:26:15.962Z,13.37
2022-08-25T03:28:42.620Z,13.55
2022-08-25T03:31:09.683Z,13.57
2022-08-25T03:33:36.952Z,13.07
2022-08-25T03:36:04.457Z,13.57
2022-08-25T03:38:31.284Z,13.50
2022-08-25T03:40:57.910Z,13.58
2022-08-25T03:43:24.692Z,13.79
2022-08-25T03:45:51.295Z,13.98
2022-08-25T03:48:18.069Z,13.72
2022-08-25T03:50:50.738Z,13.70
2022-08-25T03:53:19.942Z,13.61
2022-08-25T03:55:47.038Z,13.14
2022-08-25T03:58:14.175Z,13.65
2022-08-25T04:00:40.892Z,13.68
2022-08-25T04:03:07.677Z,13.91
2022-08-25T04:05:34.260Z,13.69
2022-08-25T04:08:01.191Z,13.76
2022-08-25T04:10:27.788Z,13.47
2022-08-25T04:12:54.432Z,13.43
2022-08-25T04:15:24.167Z,13.47
2022-08-25T04:17:57.377Z,13.43
2022-08-25T04:20:23.970Z,13.59
2022-08-25T04:22:50.829Z,13.57
2022-08-25T04:25:17.560Z,13.10
2022-08-25T04:27:44.242Z,13.68
2022-08-25T04:30:11.522Z,13.30
2022-08-25T04:32:38.232Z,13.35
2022-08-25T04:35:05.222Z,13.02
2022-08-25T04:37:32.199Z,13.45
2022-08-25T04:39:59.105Z,13.20
2022-08-25T04:42:25.854Z,13.22
2022-08-25T04:44:52.609Z,13.34
2022-08-25T04:47:19.282Z,12.83
2022-08-25T04:49:45.891Z,13.07
2022-08-25T04:52:13.221Z,13.05
2022-08-25T04:54:41.952Z,13.52
2022-08-25T04:57:08.687Z,13.11
2022-08-25T04:59:35.353Z,13.38
2022-08-25T05:02:02.774Z,13.20
2022-08-25T05:04:30.135Z,13.29
2022-08-25T05:06:57.281Z,13.34
2022-08-25T05:09:25.259Z,13.47
2022-08-25T05:11:53.059Z,13.96
2022-08-25T05:14:20.843Z,13.62
2022-08-25T05:16:48.494Z,14.16
2022-08-25T05:19:15.403Z,14.18
2022-08-25T05:21:42.071Z,14.25
2022-08-25T05:24:08.626Z,14.27
2022-08-25T05:26:35.633Z,14.19
2022-08-25T05:29:04.153Z,14.89
2022-08-25T05:31:32.136Z,14.75
2022-08-25T05:33:59.374Z,15.07
2022-08-25T05:36:27.881Z,15.47
2022-08-25T05:38:54.421Z,15.28
2022-08-25T05:41:25.518Z,15.34
2022-08-25T05:43:52.335Z,15.94
2022-08-25T05:46:20.279Z,15.90
2022-08-25T05:48:47.735Z,15.95
2022-08-25T05:51:15.048Z,15.94
2022-08-25T05:53:49.212Z,16.35
2022-08-25T05:56:17.231Z,15.90
2022-08-25T05:58:44.509Z,16.60
2022-08-25T06:01:20.525Z,17.00
2022-08-25T06:03:47.952Z,17.11
2022-08-25T06:06:16.334Z,16.94
2022-08-25T06:08:44.428Z,16.81
2022-08-25T06:11:12.599Z,16.79
2022-08-25T06:13:39.934Z,16.73
2022-08-25T06:16:06.878Z,16.84
2022-08-25T06:18:33.697Z,17.44
2022-08-25T06:21:08.111Z,17.24
2022-08-25T06:23:34.758Z,17.93
2022-08-25T06:26:01.476Z,17.85
2022-08-25T06:28:28.239Z,18.22
2022-08-25T06:31:01.186Z,18.37
2022-08-25T06:33:28.584Z,17.99
2022-08-25T06:35:55.767Z,18.26
2022-08-25T06:38:23.728Z,18.55
2022-08-25T06:40:50.527Z,18.54
2022-08-25T06:43:17.170Z,18.42
2022-08-25T06:45:43.720Z,18.48
2022-08-25T06:48:10.967Z,18.82
2022-08-25T06:50:41.564Z,18.57
2022-08-25T06:53:08.201Z,18.92
2022-08-25T06:55:34.795Z,19.05
2022-08-25T06:58:02.338Z,19.40
2022-08-25T07:00:32.491Z,19.37
2022-08-25T07:03:00.584Z,19.17
2022-08-25T07:05:42.646Z,19.46
2022-08-25T07:08:09.703Z,19.58
2022-08-25T07:10:36.743Z,19.22
2022-08-25T07:13:03.395Z,19.32
2022-08-25T07:15:29.958Z,19.38
2022-08-25T07:17:58.130Z,19.60
2022-08-25T07:22:51.393Z,19.39
2022-08-25T07:25:18.131Z,19.10
2022-08-25T07:27:44.846Z,18.95
2022-08-25T07:30:11.582Z,18.99
2022-08-25T07:32:42.070Z,18.94
2022-08-25T07:35:10.868Z,19.04
2022-08-25T07:37:48.805Z,19.41
2022-08-25T07:40:23.450Z,19.53
2022-08-25T07:42:52.187Z,19.05
2022-08-25T07:45:21.185Z,20.24
2022-08-25T07:47:48.563Z,20.10
2022-08-25T07:50:18.692Z,20.14
2022-08-25T07:52:45.379Z,20.39
2022-08-25T07:55:20.473Z,20.95
2022-08-25T07:57:48.906Z,20.40
2022-08-25T08:00:21.040Z,20.40
2022-08-25T08:02:47.830Z,20.47
2022-08-25T08:05:15.427Z,20.18
2022-08-25T08:07:43.739Z,20.32
2022-08-25T08:13:00.818Z,20.14
2022-08-25T08:15:29.794Z,20.36
2022-08-25T08:17:57.891Z,20.46
2022-08-25T08:20:24.921Z,21.03
2022-08-25T08:22:52.075Z,20.92
2022-08-25T08:25:21.311Z,20.67
2022-08-25T08:27:51.017Z,20.36
2022-08-25T08:30:22.021Z,20.36
2022-08-25T08:33:09.120Z,20.65
2022-08-25T08:35:37.452Z,20.66
2022-08-25T08:38:13.524Z,20.52
2022-08-25T08:40:59.722Z,21.00
2022-08-25T08:43:28.344Z,21.20
2022-08-25T08:45:59.700Z,21.33
2022-08-25T08:48:53.098Z,21.93
2022-08-25T08:51:23.402Z,21.63
2022-08-25T08:54:14.971Z,21.27
2022-08-25T08:56:48.379Z,21.59
2022-08-25T08:59:30.158Z,21.44
2022-08-25T09:02:00.391Z,21.68
2022-08-25T09:04:37.547Z,21.48
2022-08-25T09:07:10.689Z,21.45
2022-08-25T09:09:41.360Z,20.66
2022-08-25T09:12:08.627Z,21.13
2022-08-25T09:14:53.741Z,21.12
2022-08-25T09:17:54.434Z,20.94
2022-08-25T09:20:46.921Z,21.17
2022-08-25T09:23:32.764Z,21.63
2022-08-25T09:26:29.879Z,22.12
2022-08-25T09:29:22.661Z,21.62
2022-08-25T09:31:54.720Z,21.53
2022-08-25T09:34:28.292Z,21.56
2022-08-25T09:36:54.992Z,21.94
2022-08-25T09:39:23.510Z,21.51
2022-08-25T09:41:53.410Z,22.29
2022-08-25T09:44:32.226Z,22.16
2022-08-25T09:47:18.058Z,22.21
2022-08-25T09:49:54.682Z,22.50
2022-08-25T09:52:28.297Z,22.81
2022-08-25T09:54:56.818Z,22.48
2022-08-25T09:57:36.754Z,21.60
2022-08-25T10:00:31.630Z,22.26
2022-08-25T10:03:22.727Z,22.96
2022-08-25T10:06:07.814Z,22.81
2022-08-25T10:08:53.622Z,23.38
2022-08-25T10:11:50.110Z,23.58
2022-08-25T10:14:18.993Z,23.55
2022-08-25T10:16:47.703Z,23.11
2022-08-25T10:19:28.145Z,23.56
2022-08-25T10:22:06.826Z,23.18
2022-08-25T10:24:35.170Z,23.40
2022-08-25T10:27:09.520Z,23.24
2022-08-25T10:29:54.957Z,23.84
2022-08-25T10:32:33.870Z,23.83
2022-08-25T10:35:09.481Z,23.25
2022-08-25T10:38:02.822Z,23.37
2022-08-25T10:40:41.069Z,23.12
2022-08-25T10:43:42.975Z,23.39
2022-08-25T10:46:31.381Z,22.65
2022-08-25T10:49:04.509Z,23.57
2022-08-25T10:51:43.457Z,24.16
2022-08-25T10:54:24.252Z,24.22
2022-08-25T10:57:13.351Z,23.84
2022-08-25T10:59:40.140Z,23.74
2022-08-25T11:02:22.043Z,23.68
2022-08-25T11:04:52.514Z,23.98
2022-08-25T11:07:24.436Z,24.35
2022-08-25T11:09:54.801Z,24.49
2022-08-25T11:12:30.137Z,24.26
2022-08-25T11:15:19.461Z,24.75
2022-08-25T11:17:57.521Z,25.16
2022-08-25T11:20:33.517Z,25.17
2022-08-25T11:23:28.284Z,25.58
2022-08-25T11:26:03.099Z,25.22
2022-08-25T11:28:29.835Z,25.16
2022-08-25T11:31:00.493Z,24.77
2022-08-25T11:33:29.167Z,24.59
2022-08-25T11:36:00.957Z,24.97
2022-08-25T11:38:37.586Z,25.45
2022-08-25T11:41:11.287Z,25.74
2022-08-25T11:44:12.433Z,25.48
2022-08-25T11:47:14.313Z,24.98
2022-08-25T11:50:25.936Z,24.93
2022-08-25T11:53:16.163Z,24.87
2022-08-25T11:55:53.464Z,25.02
2022-08-25T11:58:35.455Z,25.14
2022-08-25T12:01:06.142Z,25.34
2022-08-25T12:03:35.560Z,25.55
2022-08-25T12:06:23.937Z,25.77
2022-08-25T12:09:00.007Z,25.41
2022-08-25T12:11:39.598Z,25.91
2022-08-25T12:14:28.730Z,26.18
2022-08-25T12:16:55.498Z,26.15
2022-08-25T12:19:34.288Z,26.10
2022-08-25T12:22:01.017Z,25.84
2022-08-25T12:24:48.140Z,25.00
2022-08-25T12:27:34.246Z,25.78
2022-08-25T12:30:00.820Z,25.69
2022-08-25T12:33:01.446Z,25.86
2022-08-25T12:35:38.392Z,25.73
2022-08-25T12:38:10.863Z,25.40
2022-08-25T12:40:45.306Z,26.25
2022-08-25T12:43:27.444Z,26.60
2022-08-25T12:46:23.108Z,26.55
2022-08-25T12:48:53.694Z,26.00
2022-08-25T12:51:26.902Z,25.65
2022-08-25T12:53:59.407Z,25.31
2022-08-25T12:56:32.071Z,25.37
2022-08-25T12:59:01.690Z,25.46
2022-08-25T13:01:47.320Z,25.19
2022-08-25T13:04:35.306Z,25.12
2022-08-25T13:07:14.113Z,24.96
2022-08-25T13:10:05.561Z,24.90
2022-08-25T13:13:01.753Z,25.36
2022-08-25T13:15:47.176Z,25.39
2022-08-25T13:18:37.095Z,25.68
2022-08-25T13:21:08.539Z,25.68
2022-08-25T13:23:40.807Z,24.09
2022-08-25T13:26:07.744Z,25.82
2022-08-25T13:28:40.752Z,26.11
2022-08-25T13:31:20.497Z,26.09
2022-08-25T13:33:58.210Z,25.94
2022-08-25T13:36:27.555Z,26.13
2022-08-25T13:38:54.832Z,25.81
2022-08-25T13:41:29.220Z,25.46
2022-08-25T13:44:00.785Z,25.56
2022-08-25T13:46:27.960Z,24.58
2022-08-25T13:49:05.032Z,24.96
2022-08-25T13:51:36.727Z,25.17
2022-08-25T13:54:07.100Z,24.87
2022-08-25T13:56:41.414Z,24.69
2022-08-25T13:59:24.372Z,25.55
2022-08-25T14:01:52.086Z,25.85
2022-08-25T14:04:27.638Z,25.68
2022-08-25T14:07:15.553Z,25.87
2022-08-25T14:09:52.160Z,25.80
2022-08-25T14:12:36.632Z,25.81
2022-08-25T14:15:08.839Z,25.31
2022-08-25T14:17:39.325Z,25.18
2022-08-25T14:20:17.206Z,25.15
2022-08-25T14:22:44.065Z,24.57
2022-08-25T14:25:10.766Z,25.24
2022-08-25T14:27:56.824Z,25.06
2022-08-25T14:30:28.653Z,25.65
2022-08-25T14:32:56.797Z,25.70
2022-08-25T14:35:23.495Z,25.56
2022-08-25T14:37:50.604Z,25.39
2022-08-25T14:40:17.281Z,25.27
2022-08-25T14:42:44.681Z,25.50
2022-08-25T14:45:14.564Z,24.44
2022-08-25T14:47:41.244Z,24.95
2022-08-25T14:50:08.331Z,24.75
2022-08-25T14:52:35.020Z,24.57
2022-08-25T14:55:01.975Z,25.39
2022-08-25T14:57:28.775Z,25.25
2022-08-25T14:59:55.496Z,25.17
2022-08-25T15:02:29.346Z,25.51
2022-08-25T15:05:00.294Z,25.25
2022-08-25T15:07:29.384Z,24.67
2022-08-25T15:09:55.955Z,24.82
2022-08-25T15:12:46.024Z,24.07
2022-08-25T15:15:09.919Z,25.38
2022-08-25T15:17:41.881Z,24.79
2022-08-25T15:20:11.962Z,25.03
2022-08-25T15:22:38.660Z,24.73
2022-08-25T15:25:06.297Z,24.51
2022-08-25T15:27:34.336Z,24.82
2022-08-25T15:30:01.045Z,24.60
2022-08-25T15:32:27.859Z,24.33
2022-08-25T15:34:54.658Z,22.85
2022-08-25T15:37:21.292Z,24.89
2022-08-25T15:39:47.962Z,24.28
2022-08-25T15:42:14.788Z,24.39
2022-08-25T15:44:42.199Z,25.14
2022-08-25T15:47:21.128Z,24.44
2022-08-25T15:49:47.845Z,25.32
2022-08-25T15:52:14.522Z,24.24
2022-08-25T15:54:41.173Z,24.90
2022-08-25T15:57:08.823Z,24.85
2022-08-25T15:59:36.132Z,25.04
2022-08-25T16:02:14.943Z,25.05
2022-08-25T16:04:42.178Z,25.02
2022-08-25T16:07:09.880Z,23.66
2022-08-25T16:09:41.246Z,25.47
2022-08-25T16:12:08.757Z,25.22
2022-08-25T16:14:36.609Z,25.06
2022-08-25T16:17:04.254Z,25.05
2022-08-25T16:19:31.738Z,25.56
2022-08-25T16:21:59.911Z,25.01
2022-08-25T16:24:27.188Z,24.89
2022-08-25T16:26:55.969Z,24.96
2022-08-25T16:29:23.489Z,25.15
2022-08-25T16:31:54.902Z,25.00
2022-08-25T16:34:24.455Z,25.08
2022-08-25T16:36:52.992Z,25.11
2022-08-25T16:39:20.773Z,24.87
2022-08-25T16:41:47.921Z,24.85
2022-08-25T16:44:15.342Z,22.97
2022-08-25T16:46:42.384Z,24.68
2022-08-25T16:49:12.308Z,25.15
2022-08-25T16:51:40.316Z,25.14
2022-08-25T16:54:09.256Z,25.29
2022-08-25T16:56:37.140Z,23.80
2022-08-25T16:59:04.965Z,23.76
2022-08-25T17:01:33.417Z,24.97
2022-08-25T17:04:00.160Z,24.95
2022-08-25T17:06:32.893Z,25.41
2022-08-25T17:08:59.963Z,25.33
2022-08-25T17:11:29.556Z,25.36
2022-08-25T17:14:01.036Z,25.28
2022-08-25T17:16:35.748Z,25.39
2022-08-25T17:19:07.383Z,25.25
2022-08-25T17:21:45.102Z,24.69
2022-08-25T17:24:13.275Z,25.06
2022-08-25T17:26:42.320Z,24.73
2022-08-25T17:29:09.737Z,24.14
2022-08-25T17:31:37.335Z,25.09
2022-08-25T17:34:04.214Z,25.05
2022-08-25T17:36:30.819Z,24.53
2022-08-25T17:38:57.525Z,23.40
2022-08-25T17:41:24.794Z,24.41
2022-08-25T17:43:51.458Z,24.54
2022-08-25T17:46:18.257Z,22.81
2022-08-25T17:48:45.170Z,24.19
2022-08-25T17:51:12.651Z,24.61
2022-08-25T17:53:42.487Z,24.37
2022-08-25T17:56:15.460Z,24.12
2022-08-25T17:58:46.218Z,24.35
2022-08-25T18:01:23.583Z,24.46
2022-08-25T18:03:51.025Z,24.29
2022-08-25T18:06:18.413Z,24.24
2022-08-25T18:08:50.276Z,23.69
2022-08-25T18:11:20.080Z,23.99
2022-08-25T18:13:46.793Z,24.32
2022-08-25T18:16:13.905Z,24.11
2022-08-25T18:18:42.522Z,23.13
2022-08-25T18:21:14.817Z,23.85
2022-08-25T18:23:42.394Z,22.77
2022-08-25T18:26:12.972Z,23.67
2022-08-25T18:28:40.262Z,21.40
2022-08-25T18:31:10.945Z,23.08
2022-08-25T18:33:37.714Z,22.88
2022-08-25T18:36:09.679Z,23.63
2022-08-25T18:38:37.420Z,22.57
2022-08-25T18:41:07.760Z,22.93
2022-08-25T18:43:34.968Z,22.89
2022-08-25T18:46:03.540Z,23.45
2022-08-25T18:48:31.852Z,23.43
2022-08-25T18:51:00.531Z,23.41
2022-08-25T18:53:30.510Z,20.96
2022-08-25T18:56:05.689Z,23.02
2022-08-25T18:58:32.440Z,22.92
2022-08-25T19:00:59.077Z,22.51
2022-08-25T19:03:27.488Z,23.16
2022-08-25T19:05:57.860Z,22.94
2022-08-25T19:08:24.974Z,22.83
2022-08-25T19:10:52.837Z,22.68
2022-08-25T19:13:22.733Z,23.15
2022-08-25T19:15:51.482Z,23.23
2022-08-25T19:18:18.838Z,22.53
2022-08-25T19:20:52.821Z,22.73
2022-08-25T19:23:19.943Z,22.90
2022-08-25T19:25:46.765Z,22.94
2022-08-25T19:28:13.720Z,22.78
2022-08-25T19:30:49.721Z,23.51
2022-08-25T19:33:42.241Z,23.60
2022-08-25T19:36:08.499Z,23.52
2022-08-25T19:38:37.218Z,22.90
2022-08-25T19:41:10.799Z,23.50
2022-08-25T19:43:56.051Z,23.53
2022-08-25T19:46:37.411Z,22.85
2022-08-25T19:49:11.243Z,23.46
2022-08-25T19:51:40.736Z,23.67
2022-08-25T19:54:10.146Z,23.66
2022-08-25T19:56:53.618Z,23.28
2022-08-25T19:59:22.791Z,22.91
2022-08-25T20:01:49.717Z,23.23
2022-08-25T20:04:16.723Z,22.96
2022-08-25T20:06:43.302Z,21.40
2022-08-25T20:09:36.040Z,23.09
2022-08-25T20:12:04.231Z,23.02
2022-08-25T20:14:33.445Z,22.66
2022-08-25T20:17:22.982Z,22.11
2022-08-25T20:19:57.371Z,22.88
2022-08-25T20:22:26.906Z,22.48
2022-08-25T20:24:58.020Z,22.77
2022-08-25T20:27:32.602Z,22.71
2022-08-25T20:29:59.914Z,22.31
2022-08-25T20:32:29.772Z,22.22
2022-08-25T20:34:56.641Z,22.54
2022-08-25T20:37:23.219Z,22.25
2022-08-25T20:39:51.228Z,22.45
2022-08-25T20:42:17.840Z,21.62
2022-08-25T20:44:44.511Z,21.97
2022-08-25T20:47:11.068Z,21.74
2022-08-25T20:49:41.513Z,21.96
2022-08-25T20:52:08.505Z,22.06
2022-08-25T20:54:35.448Z,21.86
2022-08-25T20:57:02.887Z,21.68
2022-08-25T20:59:29.600Z,21.73
2022-08-25T21:01:56.694Z,22.16
2022-08-25T21:04:26.967Z,22.10
2022-08-25T21:06:53.558Z,21.81
2022-08-25T21:09:22.613Z,21.38
2022-08-25T21:11:52.247Z,21.94
2022-08-25T21:14:19.563Z,21.85
2022-08-25T21:16:46.480Z,21.01
2022-08-25T21:19:26.582Z,20.93
2022-08-25T21:22:00.022Z,21.65
2022-08-25T21:24:27.466Z,21.14
2022-08-25T21:26:56.676Z,21.59
2022-08-25T21:29:25.232Z,21.60
2022-08-25T21:31:52.154Z,21.56
2022-08-25T21:34:20.019Z,21.48
2022-08-25T21:36:48.001Z,21.15
2022-08-25T21:39:15.330Z,21.36
2022-08-25T21:41:42.999Z,20.93
2022-08-25T21:44:10.941Z,21.21
2022-08-25T21:46:37.865Z,20.96
2022-08-25T21:49:06.711Z,21.22
2022-08-25T21:51:41.032Z,21.24
2022-08-25T21:54:11.211Z,20.73
2022-08-25T21:56:41.371Z,21.07
2022-08-25T21:59:13.295Z,20.74
2022-08-25T22:01:40.847Z,20.96
2022-08-25T22:04:09.096Z,20.90
2022-08-25T22:06:36.077Z,20.93
2022-08-25T22:09:04.523Z,20.20
2022-08-25T22:11:31.939Z,20.46
2022-08-25T22:14:03.731Z,20.81
2022-08-25T22:16:33.024Z,20.43
2022-08-25T22:18:59.726Z,20.45
2022-08-25T22:21:28.335Z,20.77
2022-08-25T22:23:56.008Z,20.68
2022-08-25T22:26:24.119Z,20.51
2022-08-25T22:28:54.096Z,19.87
2022-08-25T22:31:21.196Z,19.67
2022-08-25T22:33:49.659Z,19.52
2022-08-25T22:36:17.388Z,20.14
2022-08-25T22:38:45.947Z,19.61
2022-08-25T22:41:13.313Z,19.63
2022-08-25T22:43:53.444Z,19.73
2022-08-25T22:46:21.841Z,20.05
2022-08-25T22:48:50.256Z,19.87
2022-08-25T22:51:23.202Z,20.04
2022-08-25T22:53:50.869Z,20.16
2022-08-25T22:56:21.351Z,19.98
2022-08-25T22:58:51.798Z,19.68
2022-08-25T23:01:19.972Z,20.05
2022-08-25T23:03:47.674Z,19.61
2022-08-25T23:06:24.490Z,19.58
2022-08-25T23:08:53.696Z,19.91
2022-08-25T23:11:23.839Z,19.83
2022-08-25T23:13:50.801Z,19.40
2022-08-25T23:16:18.056Z,19.64
2022-08-25T23:18:45.252Z,19.85
2022-08-25T23:21:12.606Z,19.49
2022-08-25T23:23:42.267Z,19.43
2022-08-25T23:26:10.481Z,19.94
2022-08-25T23:28:37.238Z,19.42
2022-08-25T23:31:09.482Z,19.93
2022-08-25T23:33:39.517Z,19.84
2022-08-25T23:36:09.330Z,19.82
2022-08-25T23:38:39.350Z,19.84
2022-08-25T23:41:07.628Z,19.81
2022-08-25T23:43:36.205Z,19.83
2022-08-25T23:46:03.208Z,19.45
2022-08-25T23:48:30.350Z,19.58
2022-08-25T23:50:57.650Z,19.48
2022-08-25T23:53:25.224Z,19.37
2022-08-25T23:55:53.063Z,19.35
2022-08-25T23:58:20.753Z,19.50
